createdAt,value
2023-05-02T00:01:22.752Z,13.78
2023-05-02T00:03:53.189Z,13.75
2023-05-02T00:06:23.337Z,13.72
2023-05-02T00:08:53.585Z,13.72
2023-05-02T00:11:25.462Z,13.73
2023-05-02T00:13:55.601Z,13.73
2023-05-02T00:16:28.401Z,13.76
2023-05-02T00:18:58.827Z,13.71
2023-05-02T00:21:29.535Z,13.66
2023-05-02T00:24:00.513Z,13.45
2023-05-02T00:26:31.244Z,13.46
2023-05-02T00:29:01.503Z,13.48
2023-05-02T00:31:35.977Z,13.55
2023-05-02T00:34:06.732Z,13.51
2023-05-02T00:36:37.096Z,13.53
2023-05-02T00:39:08.174Z,13.54
2023-05-02T00:41:38.710Z,13.35
2023-05-02T00:44:09.210Z,13.53
2023-05-02T00:46:42.243Z,13.51
2023-05-02T00:49:12.737Z,13.46
2023-05-02T00:51:43.719Z,13.47
2023-05-02T00:54:14.720Z,13.45
2023-05-02T00:56:45.144Z,13.46
2023-05-02T00:59:16.749Z,13.46
2023-05-02T01:02:01.404Z,13.47
2023-05-02T01:04:43.139Z,13.43
2023-05-02T01:07:25.541Z,13.34
2023-05-02T01:10:12.735Z,13.26
2023-05-02T01:12:46.393Z,13.26
2023-05-02T01:15:22.076Z,13.11
2023-05-02T01:17:57.699Z,13.17
2023-05-02T01:20:32.237Z,13.00
2023-05-02T01:23:10.168Z,13.13
2023-05-02T01:25:59.601Z,12.97
2023-05-02T01:28:40.706Z,13.10
2023-05-02T01:31:15.377Z,13.13
2023-05-02T01:33:47.832Z,13.14
2023-05-02T01:36:22.824Z,13.04
2023-05-02T01:38:54.600Z,13.14
2023-05-02T01:41:27.994Z,13.06
2023-05-02T01:44:01.039Z,13.14
2023-05-02T01:46:36.927Z,13.10
2023-05-02T01:49:11.031Z,13.09
2023-05-02T01:51:48.991Z,13.08
2023-05-02T01:54:20.773Z,13.01
2023-05-02T01:56:51.406Z,13.04
2023-05-02T01:59:24.009Z,12.99
2023-05-02T02:01:57.999Z,12.95
2023-05-02T02:04:29.498Z,12.90
2023-05-02T02:07:04.377Z,12.87
2023-05-02T02:09:34.806Z,12.86
2023-05-02T02:12:10.041Z,12.84
2023-05-02T02:14:42.403Z,12.81
2023-05-02T02:17:28.661Z,12.75
2023-05-02T02:20:00.706Z,12.73
2023-05-02T02:22:32.169Z,12.73
2023-05-02T02:25:02.637Z,12.82
2023-05-02T02:27:32.922Z,12.82
2023-05-02T02:30:04.589Z,12.69
2023-05-02T02:32:37.358Z,12.89
2023-05-02T02:35:08.871Z,12.86
2023-05-02T02:37:44.555Z,12.84
2023-05-02T02:40:23.857Z,12.86
2023-05-02T02:43:05.580Z,12.81
2023-05-02T02:45:42.007Z,12.77
2023-05-02T02:48:28.067Z,12.74
2023-05-02T02:51:06.484Z,12.76
2023-05-02T02:53:41.212Z,12.72
2023-05-02T02:56:19.126Z,12.71
2023-05-02T02:58:57.622Z,12.70
2023-05-02T03:01:32.092Z,12.65
2023-05-02T03:04:09.168Z,12.61
2023-05-02T03:06:42.600Z,12.56
2023-05-02T03:09:19.416Z,12.54
2023-05-02T03:11:52.027Z,12.53
2023-05-02T03:14:22.251Z,12.51
2023-05-02T03:16:53.207Z,12.51
2023-05-02T03:19:29.912Z,12.52
2023-05-02T03:22:02.289Z,12.31
2023-05-02T03:24:34.088Z,12.48
2023-05-02T03:27:15.920Z,12.47
2023-05-02T03:29:48.545Z,12.44
2023-05-02T03:32:18.994Z,12.43
2023-05-02T03:34:52.603Z,12.44
2023-05-02T03:37:22.609Z,12.31
2023-05-02T03:39:52.857Z,12.24
2023-05-02T03:42:25.677Z,12.30
2023-05-02T03:44:56.583Z,12.49
2023-05-02T03:47:28.483Z,12.47
2023-05-02T03:50:03.625Z,12.48
2023-05-02T03:52:37.710Z,12.44
2023-05-02T03:55:09.231Z,12.49
2023-05-02T03:57:40.868Z,12.48
2023-05-02T04:00:14.584Z,12.47
2023-05-02T04:02:52.235Z,12.46
2023-05-02T04:05:28.877Z,12.50
2023-05-02T04:07:59.918Z,12.49
2023-05-02T04:10:30.235Z,12.47
2023-05-02T04:13:04.030Z,12.43
2023-05-02T04:15:36.224Z,12.33
2023-05-02T04:18:07.408Z,12.22
2023-05-02T04:20:41.633Z,12.08
2023-05-02T04:23:11.897Z,12.00
2023-05-02T04:25:42.042Z,11.90
2023-05-02T04:28:12.951Z,11.89
2023-05-02T04:30:43.356Z,11.88
2023-05-02T04:33:14.887Z,11.86
2023-05-02T04:35:47.875Z,11.87
2023-05-02T04:38:19.969Z,11.87
2023-05-02T04:40:54.234Z,11.90
2023-05-02T04:43:31.450Z,11.86
2023-05-02T04:46:04.865Z,11.76
2023-05-02T04:48:42.295Z,11.65
2023-05-02T04:51:17.061Z,11.52
2023-05-02T04:53:50.707Z,11.45
2023-05-02T04:56:22.002Z,11.48
2023-05-02T04:58:52.796Z,11.46
2023-05-02T05:01:24.322Z,11.37
2023-05-02T05:03:56.984Z,11.35
2023-05-02T05:06:30.037Z,11.22
2023-05-02T05:09:00.653Z,11.32
2023-05-02T05:11:30.907Z,11.38
2023-05-02T05:14:01.143Z,11.29
2023-05-02T05:16:32.426Z,11.27
2023-05-02T05:19:03.143Z,11.24
2023-05-02T05:21:38.290Z,11.06
2023-05-02T05:24:09.619Z,10.82
2023-05-02T05:26:40.842Z,10.65
2023-05-02T05:29:14.904Z,10.55
2023-05-02T05:31:46.055Z,10.48
2023-05-02T05:34:19.146Z,10.49
2023-05-02T05:36:53.367Z,10.47
2023-05-02T05:39:25.775Z,10.34
2023-05-02T05:41:59.259Z,10.22
2023-05-02T05:44:30.190Z,10.14
2023-05-02T05:47:02.803Z,10.16
2023-05-02T05:49:38.455Z,10.15
2023-05-02T05:52:15.978Z,10.23
2023-05-02T05:54:46.387Z,10.17
2023-05-02T05:57:17.055Z,10.23
2023-05-02T05:59:47.379Z,10.21
2023-05-02T06:02:19.949Z,10.19
2023-05-02T06:04:50.737Z,10.30
2023-05-02T06:07:26.556Z,10.32
2023-05-02T06:09:56.676Z,10.35
2023-05-02T06:12:27.203Z,10.21
2023-05-02T06:14:57.414Z,10.25
2023-05-02T06:17:27.920Z,10.30
2023-05-02T06:19:58.522Z,10.25
2023-05-02T06:22:31.479Z,10.32
2023-05-02T06:25:01.985Z,10.22
2023-05-02T06:27:33.675Z,10.17
2023-05-02T06:30:04.961Z,10.23
2023-05-02T06:32:35.538Z,10.23
2023-05-02T06:35:05.758Z,10.15
2023-05-02T06:37:39.275Z,10.29
2023-05-02T06:40:11.209Z,10.31
2023-05-02T06:42:41.454Z,10.34
2023-05-02T06:45:12.414Z,10.41
2023-05-02T06:47:42.489Z,10.23
2023-05-02T06:50:14.433Z,10.30
2023-05-02T06:52:47.184Z,10.33
2023-05-02T06:55:17.398Z,10.35
2023-05-02T06:57:47.443Z,10.46
2023-05-02T07:00:21.874Z,10.54
2023-05-02T07:02:52.651Z,10.47
2023-05-02T07:05:22.533Z,10.68
2023-05-02T07:07:57.713Z,10.94
2023-05-02T07:10:27.902Z,11.04
2023-05-02T07:13:00.889Z,11.11
2023-05-02T07:15:30.955Z,10.96
2023-05-02T07:18:01.267Z,11.05
2023-05-02T07:20:31.681Z,11.17
2023-05-02T07:23:05.668Z,11.07
2023-05-02T07:25:36.867Z,11.08
2023-05-02T07:28:07.316Z,11.12
2023-05-02T07:30:37.443Z,11.12
2023-05-02T07:33:07.786Z,11.19
2023-05-02T07:35:37.868Z,11.38
2023-05-02T07:38:10.559Z,11.50
2023-05-02T07:40:40.972Z,11.32
2023-05-02T07:43:11.458Z,11.30
2023-05-02T07:45:41.620Z,11.35
2023-05-02T07:48:11.882Z,11.16
2023-05-02T07:50:42.145Z,11.16
2023-05-02T07:53:15.153Z,11.13
2023-05-02T07:55:45.250Z,10.93
2023-05-02T07:58:15.431Z,10.95
2023-05-02T08:00:45.554Z,10.93
2023-05-02T08:03:15.717Z,10.93
2023-05-02T08:05:45.833Z,10.98
2023-05-02T08:08:18.560Z,10.97
2023-05-02T08:10:50.613Z,10.96
2023-05-02T08:13:21.205Z,11.06
2023-05-02T08:15:52.154Z,11.23
2023-05-02T08:18:24.041Z,11.25
2023-05-02T08:20:54.643Z,11.22
2023-05-02T08:23:27.391Z,11.25
2023-05-02T08:25:57.528Z,11.12
2023-05-02T08:28:27.913Z,11.08
2023-05-02T08:30:58.075Z,11.16
2023-05-02T08:33:28.420Z,11.27
2023-05-02T08:35:58.328Z,11.35
2023-05-02T08:38:31.121Z,11.04
2023-05-02T08:41:01.210Z,11.00
2023-05-02T08:43:32.666Z,11.02
2023-05-02T08:46:05.069Z,10.95
2023-05-02T08:48:36.250Z,10.89
2023-05-02T08:51:07.192Z,11.06
2023-05-02T08:53:40.997Z,11.13
2023-05-02T08:56:12.165Z,11.04
2023-05-02T08:58:43.284Z,11.10
2023-05-02T09:01:16.242Z,11.00
2023-05-02T09:03:47.283Z,11.00
2023-05-02T09:06:19.360Z,11.10
2023-05-02T09:08:53.680Z,11.10
2023-05-02T09:11:24.377Z,10.95
2023-05-02T09:13:56.215Z,10.78
2023-05-02T09:16:27.632Z,10.62
2023-05-02T09:18:59.034Z,10.55
2023-05-02T09:21:37.897Z,10.59
2023-05-02T09:24:21.260Z,10.58
2023-05-02T09:27:03.124Z,10.68
2023-05-02T09:29:36.506Z,10.88
2023-05-02T09:32:07.226Z,10.91
2023-05-02T09:34:37.830Z,10.89
2023-05-02T09:37:08.538Z,11.31
2023-05-02T09:39:41.101Z,11.77
2023-05-02T09:42:11.106Z,11.88
2023-05-02T09:44:41.394Z,11.82
2023-05-02T09:47:11.612Z,11.63
2023-05-02T09:49:46.686Z,11.62
2023-05-02T09:52:18.546Z,11.69
2023-05-02T09:54:52.835Z,11.89
2023-05-02T09:57:23.534Z,11.78
2023-05-02T10:00:03.657Z,11.82
2023-05-02T10:02:43.644Z,11.98
2023-05-02T10:05:14.763Z,12.20
2023-05-02T10:07:44.996Z,12.36
2023-05-02T10:10:20.489Z,12.42
2023-05-02T10:12:53.658Z,12.43
2023-05-02T10:15:28.227Z,12.33
2023-05-02T10:18:01.321Z,12.58
2023-05-02T10:20:38.868Z,12.75
2023-05-02T10:23:09.923Z,12.61
2023-05-02T10:25:43.349Z,12.50
2023-05-02T10:28:13.782Z,12.53
2023-05-02T10:30:44.716Z,12.26
2023-05-02T10:33:19.244Z,11.98
2023-05-02T10:35:50.605Z,11.92
2023-05-02T10:38:24.967Z,12.07
2023-05-02T10:40:59.197Z,12.07
2023-05-02T10:43:34.038Z,12.13
2023-05-02T10:46:05.229Z,12.21
2023-05-02T10:48:35.525Z,12.53
2023-05-02T10:51:06.046Z,12.64
2023-05-02T10:53:37.807Z,12.88
2023-05-02T10:56:29.399Z,12.68
2023-05-02T10:59:32.283Z,12.73
2023-05-02T11:02:03.578Z,12.65
2023-05-02T11:05:04.628Z,12.36
2023-05-02T11:07:39.841Z,12.69
2023-05-02T11:10:28.271Z,12.44
2023-05-02T11:13:02.052Z,12.55
2023-05-02T11:16:00.089Z,12.36
2023-05-02T11:18:30.092Z,12.60
2023-05-02T11:21:33.061Z,12.72
2023-05-02T11:24:33.208Z,12.95
2023-05-02T11:27:36.009Z,13.24
2023-05-02T11:30:39.208Z,13.43
2023-05-02T11:33:18.026Z,13.32
2023-05-02T11:35:51.837Z,13.14
2023-05-02T11:38:24.752Z,13.05
2023-05-02T11:40:57.087Z,13.12
2023-05-02T11:43:31.495Z,13.31
2023-05-02T11:46:06.251Z,13.41
2023-05-02T11:48:36.434Z,12.95
2023-05-02T11:51:07.731Z,13.03
2023-05-02T11:53:43.717Z,13.34
2023-05-02T11:56:13.837Z,13.51
2023-05-02T11:58:44.522Z,13.28
2023-05-02T12:01:18.453Z,12.81
2023-05-02T12:03:49.706Z,12.74
2023-05-02T12:06:21.652Z,12.95
2023-05-02T12:08:55.798Z,13.13
2023-05-02T12:11:27.078Z,13.40
2023-05-02T12:13:57.848Z,13.15
2023-05-02T12:16:31.109Z,12.90
2023-05-02T12:19:01.521Z,12.94
2023-05-02T12:21:33.303Z,12.87
2023-05-02T12:24:04.142Z,13.20
2023-05-02T12:26:34.519Z,13.26
2023-05-02T12:29:08.385Z,13.34
2023-05-02T12:31:41.514Z,13.40
2023-05-02T12:34:11.789Z,13.08
2023-05-02T12:36:47.770Z,12.91
2023-05-02T12:39:17.883Z,12.82
2023-05-02T12:41:48.069Z,12.96
2023-05-02T12:44:18.940Z,12.95
2023-05-02T12:47:03.515Z,13.17
2023-05-02T12:49:33.810Z,12.83
2023-05-02T12:52:04.213Z,12.73
2023-05-02T12:54:34.405Z,12.69
2023-05-02T12:57:08.406Z,12.71
2023-05-02T12:59:41.372Z,12.76
2023-05-02T13:02:15.091Z,12.79
2023-05-02T13:04:45.165Z,12.96
2023-05-02T13:07:15.231Z,13.07
2023-05-02T13:09:45.275Z,13.27
2023-05-02T13:12:15.511Z,13.39
2023-05-02T13:14:45.623Z,13.85
2023-05-02T13:17:18.660Z,14.04
2023-05-02T13:20:00.326Z,14.24
2023-05-02T13:22:32.092Z,14.09
2023-05-02T13:25:02.400Z,13.92
2023-05-02T13:27:34.311Z,13.70
2023-05-02T13:30:10.426Z,13.61
2023-05-02T13:32:43.620Z,13.57
2023-05-02T13:35:16.196Z,13.48
2023-05-02T13:37:46.595Z,13.32
2023-05-02T13:40:20.075Z,13.41
2023-05-02T13:42:50.227Z,13.28
2023-05-02T13:45:20.810Z,13.25
2023-05-02T13:47:54.231Z,13.17
2023-05-02T13:50:24.382Z,13.11
2023-05-02T13:52:54.504Z,13.10
2023-05-02T13:55:27.110Z,13.17
2023-05-02T13:57:58.618Z,13.07
2023-05-02T14:00:29.439Z,13.09
2023-05-02T14:03:02.164Z,13.01
2023-05-02T14:05:32.205Z,13.12
2023-05-02T14:08:02.144Z,13.15
2023-05-02T14:10:32.255Z,13.27
2023-05-02T14:13:02.279Z,13.29
2023-05-02T14:15:32.491Z,13.31
2023-05-02T14:18:05.178Z,13.17
2023-05-02T14:20:35.836Z,12.92
2023-05-02T14:23:07.568Z,12.63
2023-05-02T14:25:39.438Z,12.78
2023-05-02T14:28:11.233Z,12.92
2023-05-02T14:30:45.169Z,13.04
2023-05-02T14:33:25.222Z,13.22
2023-05-02T14:35:56.241Z,12.99
2023-05-02T14:38:27.072Z,12.78
2023-05-02T14:40:58.663Z,12.52
2023-05-02T14:43:30.678Z,12.71
2023-05-02T14:46:04.701Z,12.26
2023-05-02T14:48:38.581Z,12.36
2023-05-02T14:51:15.446Z,12.41
2023-05-02T14:53:45.820Z,12.23
2023-05-02T14:56:18.404Z,12.02
2023-05-02T14:58:48.544Z,12.07
2023-05-02T15:01:19.945Z,12.00
2023-05-02T15:04:06.075Z,12.03
2023-05-02T15:06:38.469Z,11.97
2023-05-02T15:09:09.143Z,12.12
2023-05-02T15:11:39.171Z,12.12
2023-05-02T15:14:09.508Z,12.11
2023-05-02T15:16:39.934Z,12.02
2023-05-02T15:19:12.794Z,12.03
2023-05-02T15:21:42.850Z,12.20
2023-05-02T15:24:13.211Z,12.20
2023-05-02T15:26:43.561Z,12.15
2023-05-02T15:29:13.766Z,12.09
2023-05-02T15:31:43.849Z,11.99
2023-05-02T15:34:16.740Z,11.88
2023-05-02T15:36:46.799Z,11.87
2023-05-02T15:39:18.190Z,11.96
2023-05-02T15:41:48.312Z,12.11
2023-05-02T15:44:18.522Z,12.09
2023-05-02T15:46:49.652Z,12.14
2023-05-02T15:49:24.653Z,12.07
2023-05-02T15:51:54.901Z,12.03
2023-05-02T15:54:25.029Z,12.09
2023-05-02T15:56:55.278Z,12.06
2023-05-02T15:59:28.428Z,11.97
2023-05-02T16:01:59.456Z,11.69
2023-05-02T16:04:35.941Z,11.65
2023-05-02T16:07:06.013Z,11.62
2023-05-02T16:09:36.222Z,11.69
2023-05-02T16:12:07.462Z,11.66
2023-05-02T16:14:38.422Z,11.70
2023-05-02T16:17:08.460Z,11.73
2023-05-02T16:19:41.147Z,11.70
2023-05-02T16:22:11.641Z,11.68
2023-05-02T16:24:41.830Z,11.59
2023-05-02T16:27:13.555Z,11.59
2023-05-02T16:29:43.704Z,11.57
2023-05-02T16:32:13.753Z,11.55
2023-05-02T16:34:46.336Z,11.47
2023-05-02T16:37:16.539Z,11.28
2023-05-02T16:39:52.709Z,11.38
2023-05-02T16:42:22.686Z,11.32
2023-05-02T16:44:52.843Z,11.28
2023-05-02T16:47:22.926Z,11.12
2023-05-02T16:49:58.724Z,11.28
2023-05-02T16:52:29.815Z,11.24
2023-05-02T16:55:00.034Z,11.27
2023-05-02T16:57:30.146Z,11.28
2023-05-02T17:00:03.460Z,11.37
2023-05-02T17:02:34.386Z,11.36
2023-05-02T17:05:07.720Z,11.28
2023-05-02T17:07:37.997Z,11.24
2023-05-02T17:10:09.781Z,11.23
2023-05-02T17:12:39.788Z,11.10
2023-05-02T17:15:13.790Z,11.12
2023-05-02T17:17:45.747Z,11.13
2023-05-02T17:20:20.678Z,11.19
2023-05-02T17:22:51.432Z,11.13
2023-05-02T17:25:22.943Z,11.11
2023-05-02T17:27:52.995Z,11.06
2023-05-02T17:30:25.314Z,11.04
2023-05-02T17:32:55.675Z,11.07
2023-05-02T17:35:30.164Z,11.14
2023-05-02T17:38:00.505Z,11.05
2023-05-02T17:40:32.578Z,11.03
2023-05-02T17:43:02.835Z,11.00
2023-05-02T17:45:36.613Z,10.91
2023-05-02T17:48:06.859Z,10.83
2023-05-02T17:50:42.207Z,10.96
2023-05-02T17:53:13.299Z,10.93
2023-05-02T17:55:43.565Z,10.93
2023-05-02T17:58:13.861Z,10.90
2023-05-02T18:00:43.923Z,10.93
2023-05-02T18:03:14.447Z,10.95
2023-05-02T18:05:47.949Z,10.90
2023-05-02T18:08:17.950Z,10.82
2023-05-02T18:10:48.195Z,10.75
2023-05-02T18:13:18.205Z,10.70
2023-05-02T18:15:49.449Z,10.68
2023-05-02T18:18:19.509Z,10.61
2023-05-02T18:20:52.308Z,10.63
2023-05-02T18:23:24.716Z,10.55
2023-05-02T18:26:00.759Z,10.55
2023-05-02T18:28:30.911Z,10.48
2023-05-02T18:31:01.563Z,10.49
2023-05-02T18:33:31.954Z,10.48
2023-05-02T18:36:06.308Z,10.53
2023-05-02T18:38:37.700Z,10.48
2023-05-02T18:41:09.555Z,10.49
2023-05-02T18:43:39.702Z,10.37
2023-05-02T18:46:12.286Z,10.33
2023-05-02T18:48:42.676Z,10.32
2023-05-02T18:51:16.346Z,10.30
2023-05-02T18:53:46.416Z,10.25
2023-05-02T18:56:17.193Z,10.18
2023-05-02T18:58:47.183Z,10.05
2023-05-02T19:01:20.358Z,9.96
2023-05-02T19:03:50.690Z,9.88
2023-05-02T19:06:23.596Z,9.74
2023-05-02T19:08:53.866Z,9.57
2023-05-02T19:11:23.963Z,9.59
2023-05-02T19:13:56.893Z,9.49
2023-05-02T19:16:27.861Z,9.42
2023-05-02T19:19:00.256Z,9.36
2023-05-02T19:21:34.198Z,9.29
2023-05-02T19:24:06.597Z,9.25
2023-05-02T19:26:36.614Z,9.23
2023-05-02T19:29:06.736Z,9.21
2023-05-02T19:31:38.982Z,9.17
2023-05-02T19:34:09.198Z,9.15
2023-05-02T19:36:42.124Z,9.13
2023-05-02T19:39:13.374Z,9.11
2023-05-02T19:41:43.352Z,9.03
2023-05-02T19:44:16.108Z,9.02
2023-05-02T19:46:46.416Z,9.01
2023-05-02T19:49:16.897Z,8.92
2023-05-02T19:51:49.736Z,8.94
2023-05-02T19:54:19.774Z,8.91
2023-05-02T19:56:50.622Z,8.84
2023-05-02T19:59:21.054Z,8.80
2023-05-02T20:01:51.229Z,8.75
2023-05-02T20:04:21.446Z,8.75
2023-05-02T20:06:54.496Z,8.68
2023-05-02T20:09:25.877Z,8.66
2023-05-02T20:11:59.587Z,8.50
2023-05-02T20:14:29.812Z,8.58
2023-05-02T20:17:01.755Z,8.54
2023-05-02T20:19:32.936Z,8.47
2023-05-02T20:22:05.660Z,8.44
2023-05-02T20:24:35.648Z,8.40
2023-05-02T20:27:05.976Z,8.37
2023-05-02T20:29:36.126Z,8.35
2023-05-02T20:32:06.362Z,8.34
2023-05-02T20:34:37.045Z,8.26
2023-05-02T20:37:11.089Z,8.27
2023-05-02T20:39:41.060Z,8.22
2023-05-02T20:42:11.704Z,8.19
2023-05-02T20:44:42.226Z,8.14
2023-05-02T20:47:12.599Z,8.11
2023-05-02T20:49:42.552Z,8.07
2023-05-02T20:52:15.461Z,8.01
2023-05-02T20:54:46.510Z,7.96
2023-05-02T20:57:18.017Z,7.94
2023-05-02T20:59:53.800Z,7.89
2023-05-02T21:02:26.977Z,7.86
2023-05-02T21:04:57.763Z,7.83
2023-05-02T21:07:30.429Z,7.81
2023-05-02T21:10:01.190Z,7.77
2023-05-02T21:12:31.541Z,7.74
2023-05-02T21:15:01.690Z,7.71
2023-05-02T21:17:31.926Z,7.68
2023-05-02T21:20:05.139Z,7.64
2023-05-02T21:22:38.073Z,7.63
2023-05-02T21:25:08.933Z,7.58
2023-05-02T21:27:39.043Z,7.57
2023-05-02T21:30:10.829Z,7.55
2023-05-02T21:32:41.035Z,7.54
2023-05-02T21:35:11.624Z,7.48
2023-05-02T21:37:44.673Z,7.46
2023-05-02T21:40:16.986Z,7.33
2023-05-02T21:42:47.053Z,7.41
2023-05-02T21:45:17.350Z,7.40
2023-05-02T21:47:47.374Z,7.42
2023-05-02T21:50:17.439Z,7.39
2023-05-02T21:52:51.473Z,7.37
2023-05-02T21:55:21.644Z,7.32
2023-05-02T21:57:51.714Z,7.29
2023-05-02T22:00:21.872Z,7.26
2023-05-02T22:02:52.077Z,7.24
2023-05-02T22:05:22.334Z,7.21
2023-05-02T22:07:55.769Z,7.16
2023-05-02T22:10:26.048Z,7.12
2023-05-02T22:12:56.362Z,7.10
2023-05-02T22:15:26.324Z,6.98
2023-05-02T22:17:57.428Z,7.04
2023-05-02T22:20:28.424Z,6.98
2023-05-02T22:23:01.223Z,6.80
2023-05-02T22:25:31.227Z,6.97
2023-05-02T22:28:07.219Z,6.97
2023-05-02T22:30:37.222Z,6.98
2023-05-02T22:33:07.627Z,6.96
2023-05-02T22:35:38.909Z,6.95
2023-05-02T22:38:11.876Z,6.94
2023-05-02T22:40:42.043Z,6.89
2023-05-02T22:43:12.048Z,6.78
2023-05-02T22:45:42.184Z,6.88
2023-05-02T22:48:12.259Z,6.91
2023-05-02T22:50:43.284Z,6.89
2023-05-02T22:53:16.072Z,6.84
2023-05-02T22:55:46.092Z,6.82
2023-05-02T22:58:17.293Z,6.74
2023-05-02T23:00:47.440Z,6.73
2023-05-02T23:03:17.645Z,6.76
2023-05-02T23:05:47.862Z,6.70
2023-05-02T23:08:21.089Z,6.56
2023-05-02T23:10:51.375Z,6.67
2023-05-02T23:13:21.459Z,6.67
2023-05-02T23:15:56.162Z,6.71
2023-05-02T23:18:38.676Z,6.66
2023-05-02T23:21:17.142Z,6.51
2023-05-02T23:23:50.250Z,6.63
2023-05-02T23:26:22.438Z,6.61
2023-05-02T23:28:52.770Z,6.60
2023-05-02T23:31:22.880Z,6.60
2023-05-02T23:33:53.261Z,6.56
2023-05-02T23:36:23.404Z,6.54
2023-05-02T23:38:56.238Z,6.52
2023-05-02T23:41:26.652Z,6.45
2023-05-02T23:43:57.236Z,6.34
2023-05-02T23:46:27.929Z,6.46
2023-05-02T23:48:57.967Z,6.43
2023-05-02T23:51:32.269Z,6.44
2023-05-02T23:54:16.200Z,6.44
2023-05-02T23:56:46.651Z,6.43
2023-05-02T23:59:18.463Z,6.44
